createdAt,value
2023-04-29T00:00:55.761Z,12.88
2023-04-29T00:03:23.620Z,12.87
2023-04-29T00:05:51.483Z,12.87
2023-04-29T00:08:19.372Z,12.84
2023-04-29T00:10:47.080Z,12.86
2023-04-29T00:13:14.805Z,12.83
2023-04-29T00:15:43.145Z,12.83
2023-04-29T00:18:13.885Z,12.83
2023-04-29T00:20:43.258Z,12.81
2023-04-29T00:23:10.943Z,12.80
2023-04-29T00:25:39.058Z,12.81
2023-04-29T00:28:06.796Z,12.81
2023-04-29T00:30:34.839Z,12.81
2023-04-29T00:33:03.122Z,12.79
2023-04-29T00:35:32.174Z,12.77
2023-04-29T00:38:00.160Z,12.75
2023-04-29T00:40:29.216Z,12.75
2023-04-29T00:42:57.255Z,12.72
2023-04-29T00:45:25.215Z,12.68
2023-04-29T00:47:53.053Z,12.66
2023-04-29T00:50:21.001Z,12.64
2023-04-29T00:52:50.452Z,12.59
2023-04-29T00:55:18.651Z,12.57
2023-04-29T00:57:48.259Z,12.54
2023-04-29T01:00:17.247Z,12.51
2023-04-29T01:02:46.896Z,12.47
2023-04-29T01:05:15.137Z,12.42
2023-04-29T01:07:50.140Z,12.38
2023-04-29T01:10:28.207Z,12.34
2023-04-29T01:13:05.793Z,12.30
2023-04-29T01:15:41.004Z,12.30
2023-04-29T01:18:12.809Z,12.31
2023-04-29T01:20:42.076Z,12.33
2023-04-29T01:23:09.792Z,12.35
2023-04-29T01:25:39.360Z,12.36
2023-04-29T01:28:14.962Z,12.38
2023-04-29T01:30:51.419Z,12.37
2023-04-29T01:33:30.028Z,12.39
2023-04-29T01:36:15.557Z,12.39
2023-04-29T01:38:48.547Z,12.41
2023-04-29T01:41:24.609Z,12.44
2023-04-29T01:43:53.633Z,12.45
2023-04-29T01:46:21.524Z,12.45
2023-04-29T01:48:49.307Z,12.48
2023-04-29T01:51:17.013Z,12.45
2023-04-29T01:53:44.763Z,12.41
2023-04-29T01:56:12.535Z,12.39
2023-04-29T01:58:41.622Z,12.40
2023-04-29T02:01:10.500Z,12.39
2023-04-29T02:03:39.187Z,12.37
2023-04-29T02:06:08.047Z,12.37
2023-04-29T02:08:35.751Z,12.35
2023-04-29T02:11:03.511Z,12.33
2023-04-29T02:13:31.996Z,12.31
2023-04-29T02:16:08.692Z,12.26
2023-04-29T02:18:36.563Z,12.22
2023-04-29T02:21:04.535Z,12.17
2023-04-29T02:23:32.353Z,12.13
2023-04-29T02:26:00.067Z,12.10
2023-04-29T02:28:27.814Z,12.07
2023-04-29T02:30:55.653Z,12.01
2023-04-29T02:33:24.769Z,11.97
2023-04-29T02:35:52.545Z,11.92
2023-04-29T02:38:20.260Z,11.90
2023-04-29T02:40:48.262Z,11.86
2023-04-29T02:43:15.971Z,11.82
2023-04-29T02:45:43.687Z,11.84
2023-04-29T02:48:11.528Z,11.80
2023-04-29T02:50:40.693Z,11.75
2023-04-29T02:53:08.352Z,11.71
2023-04-29T02:55:36.101Z,11.68
2023-04-29T02:58:03.915Z,11.66
2023-04-29T03:00:31.661Z,11.62
2023-04-29T03:02:59.434Z,11.64
2023-04-29T03:05:27.375Z,11.60
2023-04-29T03:07:56.777Z,11.58
2023-04-29T03:10:24.746Z,11.51
2023-04-29T03:12:52.650Z,11.45
2023-04-29T03:15:20.533Z,11.43
2023-04-29T03:17:48.552Z,11.41
2023-04-29T03:20:16.381Z,11.39
2023-04-29T03:22:44.205Z,11.38
2023-04-29T03:25:13.636Z,11.35
2023-04-29T03:27:41.942Z,11.33
2023-04-29T03:30:10.491Z,11.30
2023-04-29T03:32:38.446Z,11.31
2023-04-29T03:35:07.178Z,11.29
2023-04-29T03:37:34.903Z,11.29
2023-04-29T03:40:02.610Z,11.27
2023-04-29T03:42:31.695Z,11.26
2023-04-29T03:44:59.424Z,11.26
2023-04-29T03:47:27.138Z,11.27
2023-04-29T03:49:55.095Z,11.28
2023-04-29T03:52:22.956Z,11.30
2023-04-29T03:54:50.612Z,11.34
2023-04-29T03:57:18.293Z,11.40
2023-04-29T03:59:50.553Z,11.43
2023-04-29T04:02:18.576Z,11.45
2023-04-29T04:04:46.739Z,11.44
2023-04-29T04:07:14.717Z,11.43
2023-04-29T04:09:42.453Z,11.44
2023-04-29T04:12:10.228Z,11.44
2023-04-29T04:14:37.978Z,11.47
2023-04-29T04:17:07.583Z,11.49
2023-04-29T04:19:35.387Z,11.53
2023-04-29T04:22:04.631Z,11.54
2023-04-29T04:24:32.354Z,11.57
2023-04-29T04:27:00.085Z,11.60
2023-04-29T04:29:27.796Z,11.65
2023-04-29T04:31:55.797Z,11.71
2023-04-29T04:34:24.995Z,11.74
2023-04-29T04:36:52.738Z,11.77
2023-04-29T04:39:20.484Z,11.80
2023-04-29T04:41:48.191Z,11.84
2023-04-29T04:44:16.584Z,11.87
2023-04-29T04:46:44.468Z,11.90
2023-04-29T04:49:12.084Z,11.92
2023-04-29T04:51:41.270Z,11.96
2023-04-29T04:54:09.109Z,11.99
2023-04-29T04:56:37.792Z,12.01
2023-04-29T04:59:05.622Z,12.05
2023-04-29T05:01:34.176Z,12.05
2023-04-29T05:04:02.900Z,12.08
2023-04-29T05:06:30.785Z,12.09
2023-04-29T05:08:59.946Z,12.09
2023-04-29T05:11:27.744Z,12.13
2023-04-29T05:13:55.556Z,12.14
2023-04-29T05:16:23.397Z,12.17
2023-04-29T05:18:51.225Z,12.20
2023-04-29T05:21:18.941Z,12.23
2023-04-29T05:23:46.747Z,12.25
2023-04-29T05:26:15.833Z,12.28
2023-04-29T05:28:43.576Z,12.28
2023-04-29T05:31:11.360Z,12.28
2023-04-29T05:33:39.202Z,12.29
2023-04-29T05:36:07.840Z,12.30
2023-04-29T05:38:35.614Z,12.31
2023-04-29T05:41:03.702Z,12.35
2023-04-29T05:43:33.171Z,12.39
2023-04-29T05:46:01.459Z,12.44
2023-04-29T05:48:29.960Z,12.49
2023-04-29T05:50:57.751Z,12.57
2023-04-29T05:53:25.587Z,12.63
2023-04-29T05:55:53.271Z,12.69
2023-04-29T05:58:20.955Z,12.74
2023-04-29T06:00:50.366Z,12.80
2023-04-29T06:03:18.245Z,12.83
2023-04-29T06:05:46.472Z,12.89
2023-04-29T06:08:14.538Z,12.92
2023-04-29T06:10:42.228Z,12.95
2023-04-29T06:13:10.140Z,12.99
2023-04-29T06:15:37.950Z,13.02
2023-04-29T06:18:07.114Z,13.03
2023-04-29T06:20:36.799Z,13.05
2023-04-29T06:23:05.991Z,13.08
2023-04-29T06:25:33.753Z,13.09
2023-04-29T06:28:02.136Z,13.12
2023-04-29T06:30:29.843Z,13.16
2023-04-29T06:32:57.870Z,13.19
2023-04-29T06:35:26.998Z,13.23
2023-04-29T06:37:56.636Z,13.28
2023-04-29T06:40:24.351Z,13.32
2023-04-29T06:42:52.649Z,13.37
2023-04-29T06:45:20.825Z,13.41
2023-04-29T06:47:48.563Z,13.44
2023-04-29T06:50:16.630Z,13.42
2023-04-29T06:52:45.745Z,13.42
2023-04-29T06:55:13.439Z,13.35
2023-04-29T06:57:41.115Z,13.34
2023-04-29T07:00:10.189Z,13.32
2023-04-29T07:02:39.089Z,13.30
2023-04-29T07:05:08.165Z,13.32
2023-04-29T07:07:35.918Z,13.32
2023-04-29T07:10:05.512Z,13.31
2023-04-29T07:12:33.271Z,13.30
2023-04-29T07:15:01.778Z,13.29
2023-04-29T07:17:31.073Z,13.29
2023-04-29T07:19:58.789Z,13.31
2023-04-29T07:22:26.810Z,13.30
2023-04-29T07:24:55.051Z,13.31
2023-04-29T07:27:24.596Z,13.32
2023-04-29T07:29:52.288Z,13.30
2023-04-29T07:32:20.053Z,13.32
2023-04-29T07:34:47.837Z,13.31
2023-04-29T07:37:15.740Z,13.31
2023-04-29T07:39:43.526Z,13.26
2023-04-29T07:42:11.382Z,13.29
2023-04-29T07:44:41.007Z,13.26
2023-04-29T07:47:08.851Z,13.26
2023-04-29T07:49:36.517Z,13.24
2023-04-29T07:52:06.140Z,13.23
2023-04-29T07:54:33.838Z,13.20
2023-04-29T07:57:03.573Z,13.20
2023-04-29T07:59:31.395Z,13.20
2023-04-29T08:02:00.544Z,13.20
2023-04-29T08:04:28.895Z,13.19
2023-04-29T08:06:56.994Z,13.18
2023-04-29T08:09:24.782Z,13.13
2023-04-29T08:11:52.546Z,13.15
2023-04-29T08:14:20.261Z,13.11
2023-04-29T08:16:48.498Z,13.12
2023-04-29T08:19:17.619Z,13.08
2023-04-29T08:21:45.354Z,13.06
2023-04-29T08:24:13.669Z,13.04
2023-04-29T08:26:42.459Z,13.03
2023-04-29T08:29:10.390Z,13.05
2023-04-29T08:31:38.138Z,13.01
2023-04-29T08:34:05.875Z,12.98
2023-04-29T08:36:37.014Z,13.01
2023-04-29T08:39:04.951Z,12.98
2023-04-29T08:41:33.680Z,12.98
2023-04-29T08:44:01.779Z,13.00
2023-04-29T08:46:30.044Z,13.02
2023-04-29T08:48:58.871Z,13.04
2023-04-29T08:51:26.680Z,13.03
2023-04-29T08:53:57.405Z,13.03
2023-04-29T08:56:27.847Z,13.05
2023-04-29T08:58:58.927Z,13.05
2023-04-29T09:01:28.903Z,13.06
2023-04-29T09:04:06.225Z,13.07
2023-04-29T09:06:34.400Z,13.08
2023-04-29T09:09:04.607Z,13.14
2023-04-29T09:11:33.283Z,13.12
2023-04-29T09:14:02.533Z,13.19
2023-04-29T09:16:30.827Z,13.23
2023-04-29T09:18:58.826Z,13.22
2023-04-29T09:21:28.795Z,13.26
2023-04-29T09:23:58.487Z,13.26
2023-04-29T09:26:28.445Z,13.30
2023-04-29T09:29:09.224Z,13.37
2023-04-29T09:31:39.293Z,13.40
2023-04-29T09:34:07.812Z,13.37
2023-04-29T09:36:41.053Z,13.42
2023-04-29T09:39:12.478Z,13.46
2023-04-29T09:41:43.633Z,13.49
2023-04-29T09:44:11.940Z,13.53
2023-04-29T09:46:39.627Z,13.58
2023-04-29T09:49:24.982Z,13.67
2023-04-29T09:51:57.280Z,13.74
2023-04-29T09:54:26.291Z,13.81
2023-04-29T09:56:56.160Z,13.94
2023-04-29T09:59:24.693Z,14.05
2023-04-29T10:01:56.953Z,14.19
2023-04-29T10:04:27.109Z,14.35
2023-04-29T10:06:56.131Z,14.49
2023-04-29T10:09:25.207Z,14.65
2023-04-29T10:11:55.366Z,14.79
2023-04-29T10:14:24.872Z,14.93
2023-04-29T10:17:03.765Z,14.98
2023-04-29T10:19:36.457Z,14.97
2023-04-29T10:22:08.421Z,15.04
2023-04-29T10:24:38.675Z,15.05
2023-04-29T10:27:08.842Z,15.15
2023-04-29T10:29:38.123Z,15.12
2023-04-29T10:32:09.838Z,15.21
2023-04-29T10:34:39.735Z,15.18
2023-04-29T10:37:09.686Z,15.20
2023-04-29T10:39:45.085Z,15.22
2023-04-29T10:42:25.258Z,15.25
2023-04-29T10:45:19.652Z,15.18
2023-04-29T10:48:13.077Z,15.18
2023-04-29T10:51:03.413Z,15.16
2023-04-29T10:53:31.550Z,15.13
2023-04-29T10:56:04.558Z,15.07
2023-04-29T10:58:44.308Z,15.06
2023-04-29T11:01:13.959Z,15.02
2023-04-29T11:03:50.208Z,15.00
2023-04-29T11:06:18.108Z,15.00
2023-04-29T11:08:45.899Z,14.91
2023-04-29T11:11:15.552Z,14.84
2023-04-29T11:13:47.982Z,14.79
2023-04-29T11:16:15.915Z,14.72
2023-04-29T11:19:08.054Z,14.74
2023-04-29T11:21:37.037Z,14.79
2023-04-29T11:24:06.409Z,14.78
2023-04-29T11:26:35.942Z,14.81
2023-04-29T11:29:06.234Z,14.83
2023-04-29T11:31:34.797Z,14.90
2023-04-29T11:34:02.960Z,14.88
2023-04-29T11:36:33.513Z,14.87
2023-04-29T11:39:01.812Z,14.88
2023-04-29T11:41:29.816Z,14.86
2023-04-29T11:43:58.723Z,14.88
2023-04-29T11:46:31.259Z,14.89
2023-04-29T11:49:00.526Z,14.99
2023-04-29T11:51:29.115Z,15.00
2023-04-29T11:53:58.823Z,15.03
2023-04-29T11:56:26.524Z,15.03
2023-04-29T11:58:57.687Z,15.06
2023-04-29T12:01:27.978Z,15.07
2023-04-29T12:04:00.019Z,15.06
2023-04-29T12:06:30.010Z,15.04
2023-04-29T12:09:00.474Z,15.06
2023-04-29T12:11:28.960Z,15.08
2023-04-29T12:13:57.067Z,15.07
2023-04-29T12:16:25.808Z,15.11
2023-04-29T12:18:55.247Z,15.17
2023-04-29T12:21:23.210Z,15.15
2023-04-29T12:23:52.651Z,15.17
2023-04-29T12:26:21.126Z,15.16
2023-04-29T12:28:55.552Z,15.13
2023-04-29T12:31:24.304Z,15.07
2023-04-29T12:33:57.656Z,15.11
2023-04-29T12:36:25.320Z,15.07
2023-04-29T12:38:54.733Z,15.06
2023-04-29T12:41:37.676Z,15.01
2023-04-29T12:44:05.348Z,14.98
2023-04-29T12:46:36.160Z,14.99
2023-04-29T12:49:06.129Z,15.04
2023-04-29T12:51:34.177Z,15.06
2023-04-29T12:54:03.743Z,15.08
2023-04-29T12:56:31.915Z,15.08
2023-04-29T12:59:06.572Z,15.10
2023-04-29T13:01:34.497Z,15.05
2023-04-29T13:04:02.333Z,15.07
2023-04-29T13:06:32.312Z,15.11
2023-04-29T13:09:00.065Z,15.21
2023-04-29T13:11:32.536Z,15.22
2023-04-29T13:14:02.313Z,15.25
2023-04-29T13:16:30.040Z,15.32
2023-04-29T13:19:05.266Z,15.32
2023-04-29T13:21:48.521Z,15.37
2023-04-29T13:24:18.314Z,15.38
2023-04-29T13:26:46.254Z,15.43
2023-04-29T13:29:14.037Z,15.44
2023-04-29T13:31:44.066Z,15.46
2023-04-29T13:34:11.932Z,15.51
2023-04-29T13:36:40.030Z,15.55
2023-04-29T13:39:10.571Z,15.52
2023-04-29T13:41:41.400Z,15.53
2023-04-29T13:44:23.605Z,15.57
2023-04-29T13:46:58.755Z,15.62
2023-04-29T13:59:40.004Z,15.78
2023-04-29T14:04:44.677Z,15.80
2023-04-29T14:07:12.592Z,15.79
2023-04-29T14:09:41.843Z,15.72
2023-04-29T14:12:09.634Z,15.85
2023-04-29T14:14:37.367Z,16.03
2023-04-29T14:17:05.167Z,16.29
2023-04-29T14:19:33.022Z,16.52
2023-04-29T14:22:00.709Z,16.87
2023-04-29T14:24:28.425Z,17.08
2023-04-29T14:26:57.946Z,17.40
2023-04-29T14:29:25.790Z,17.68
2023-04-29T14:31:53.579Z,17.80
2023-04-29T14:34:21.775Z,17.77
2023-04-29T14:36:49.453Z,17.80
2023-04-29T14:39:17.295Z,17.89
2023-04-29T14:41:45.155Z,17.82
2023-04-29T14:44:14.369Z,17.77
2023-04-29T14:46:42.366Z,17.68
2023-04-29T14:49:10.459Z,17.55
2023-04-29T14:51:38.244Z,17.37
2023-04-29T14:54:05.997Z,17.13
2023-04-29T14:56:33.707Z,17.02
2023-04-29T14:59:01.475Z,16.94
2023-04-29T15:01:32.104Z,16.84
2023-04-29T15:04:01.311Z,16.70
2023-04-29T15:06:29.472Z,16.69
2023-04-29T15:08:57.392Z,16.66
2023-04-29T15:11:26.178Z,16.54
2023-04-29T15:13:55.051Z,16.45
2023-04-29T15:16:22.876Z,16.37
2023-04-29T15:18:51.932Z,16.32
2023-04-29T15:21:19.560Z,16.29
2023-04-29T15:23:47.321Z,16.19
2023-04-29T15:26:15.079Z,16.10
2023-04-29T15:28:43.265Z,16.06
2023-04-29T15:31:11.117Z,15.99
2023-04-29T15:33:38.895Z,15.95
2023-04-29T15:36:08.443Z,15.87
2023-04-29T15:38:36.245Z,15.75
2023-04-29T15:41:04.029Z,15.72
2023-04-29T15:43:33.137Z,15.68
2023-04-29T15:46:01.089Z,15.67
2023-04-29T15:48:28.917Z,15.57
2023-04-29T15:50:57.006Z,15.58
2023-04-29T15:53:26.207Z,15.56
2023-04-29T15:55:54.681Z,15.57
2023-04-29T15:58:22.563Z,15.58
2023-04-29T16:00:51.884Z,15.55
2023-04-29T16:03:19.808Z,15.57
2023-04-29T16:05:47.600Z,15.61
2023-04-29T16:08:15.346Z,15.67
2023-04-29T16:10:45.337Z,15.70
2023-04-29T16:13:14.248Z,15.71
2023-04-29T16:15:42.050Z,15.75
2023-04-29T16:18:09.962Z,15.75
2023-04-29T16:20:37.826Z,15.77
2023-04-29T16:23:06.047Z,15.74
2023-04-29T16:25:33.795Z,15.72
2023-04-29T16:28:03.360Z,15.70
2023-04-29T16:30:31.079Z,15.64
2023-04-29T16:32:58.920Z,15.58
2023-04-29T16:35:29.008Z,15.61
2023-04-29T16:37:56.873Z,15.61
2023-04-29T16:40:25.106Z,15.52
2023-04-29T16:42:53.477Z,15.46
2023-04-29T16:45:23.887Z,15.46
2023-04-29T16:47:51.852Z,15.42
2023-04-29T16:50:19.917Z,15.38
2023-04-29T16:52:48.032Z,15.37
2023-04-29T16:55:15.833Z,15.37
2023-04-29T16:57:43.801Z,15.33
2023-04-29T17:00:12.594Z,15.24
2023-04-29T17:02:43.061Z,15.22
2023-04-29T17:05:11.429Z,15.15
2023-04-29T17:07:39.350Z,15.11
2023-04-29T17:10:08.308Z,15.10
2023-04-29T17:12:36.122Z,15.08
2023-04-29T17:15:04.597Z,15.01
2023-04-29T17:17:32.345Z,14.89
2023-04-29T17:20:01.367Z,14.86
2023-04-29T17:22:29.035Z,14.75
2023-04-29T17:24:56.983Z,14.68
2023-04-29T17:27:24.827Z,14.63
2023-04-29T17:29:53.504Z,14.58
2023-04-29T17:32:28.383Z,14.47
2023-04-29T17:34:56.591Z,14.42
2023-04-29T17:37:25.947Z,14.35
2023-04-29T17:39:53.953Z,14.32
2023-04-29T17:42:22.296Z,14.26
2023-04-29T17:44:50.068Z,14.26
2023-04-29T17:47:19.181Z,14.18
2023-04-29T17:49:47.605Z,14.18
2023-04-29T17:52:17.407Z,14.13
2023-04-29T17:54:46.502Z,14.11
2023-04-29T17:57:14.313Z,14.07
2023-04-29T17:59:42.159Z,13.98
2023-04-29T18:02:09.884Z,13.95
2023-04-29T18:04:38.152Z,13.93
2023-04-29T18:07:05.926Z,13.89
2023-04-29T18:09:34.641Z,13.85
2023-04-29T18:12:03.818Z,13.82
2023-04-29T18:14:32.003Z,13.78
2023-04-29T18:17:01.267Z,13.73
2023-04-29T18:19:29.517Z,13.73
2023-04-29T18:21:59.389Z,13.71
2023-04-29T18:24:28.562Z,13.69
2023-04-29T18:26:57.788Z,13.69
2023-04-29T18:29:27.179Z,13.65
2023-04-29T18:31:55.752Z,13.62
2023-04-29T18:34:23.952Z,13.58
2023-04-29T18:36:52.320Z,13.56
2023-04-29T18:39:20.299Z,13.52
2023-04-29T18:41:48.175Z,13.48
2023-04-29T18:44:16.094Z,13.44
2023-04-29T18:46:45.405Z,13.40
2023-04-29T18:49:16.586Z,13.35
2023-04-29T18:51:46.651Z,13.37
2023-04-29T18:54:16.458Z,13.35
2023-04-29T18:56:46.274Z,13.34
2023-04-29T18:59:15.905Z,13.32
2023-04-29T19:01:45.648Z,13.31
2023-04-29T19:04:13.809Z,13.31
2023-04-29T19:06:42.189Z,13.30
2023-04-29T19:09:11.090Z,13.28
2023-04-29T19:11:38.794Z,13.30
2023-04-29T19:14:07.526Z,13.31
2023-04-29T19:16:37.274Z,13.31
2023-04-29T19:19:06.711Z,13.29
2023-04-29T19:21:34.780Z,13.26
2023-04-29T19:24:02.885Z,13.25
2023-04-29T19:26:33.019Z,13.23
2023-04-29T19:29:02.629Z,13.22
2023-04-29T19:31:30.548Z,13.19
2023-04-29T19:33:58.413Z,13.15
2023-04-29T19:36:27.571Z,13.15
2023-04-29T19:38:55.394Z,13.16
2023-04-29T19:41:23.304Z,13.15
2023-04-29T19:43:51.274Z,13.15
2023-04-29T19:46:19.101Z,13.16
2023-04-29T19:48:46.894Z,13.15
2023-04-29T19:51:14.680Z,13.14
2023-04-29T19:53:43.810Z,13.14
2023-04-29T19:56:11.517Z,13.15
2023-04-29T19:58:39.283Z,13.13
2023-04-29T20:01:07.199Z,13.12
2023-04-29T20:03:37.290Z,13.10
2023-04-29T20:06:05.538Z,13.09
2023-04-29T20:08:33.430Z,13.05
2023-04-29T20:11:03.932Z,13.05
2023-04-29T20:13:31.734Z,13.05
2023-04-29T20:15:59.610Z,13.01
2023-04-29T20:18:27.454Z,13.00
2023-04-29T20:20:55.215Z,12.99
2023-04-29T20:23:23.151Z,12.98
2023-04-29T20:25:50.956Z,12.96
2023-04-29T20:28:20.047Z,12.98
2023-04-29T20:30:47.828Z,12.95
2023-04-29T20:33:16.003Z,12.96
2023-04-29T20:35:43.814Z,12.92
2023-04-29T20:38:11.944Z,12.91
2023-04-29T20:40:40.326Z,12.88
2023-04-29T20:43:08.091Z,12.88
2023-04-29T20:45:38.951Z,12.84
2023-04-29T20:48:07.414Z,12.84
2023-04-29T20:50:35.219Z,12.85
2023-04-29T20:53:03.315Z,12.85
2023-04-29T20:55:31.029Z,12.86
2023-04-29T20:57:58.766Z,12.87
2023-04-29T21:00:26.519Z,12.87
2023-04-29T21:02:55.706Z,12.85
2023-04-29T21:05:23.580Z,12.84
2023-04-29T21:07:51.296Z,12.83
2023-04-29T21:10:19.116Z,12.77
2023-04-29T21:12:46.835Z,12.74
2023-04-29T21:15:14.584Z,12.75
2023-04-29T21:17:42.399Z,12.71
2023-04-29T21:20:12.556Z,12.71
2023-04-29T21:22:40.332Z,12.72
2023-04-29T21:25:09.337Z,12.73
2023-04-29T21:27:37.119Z,12.73
2023-04-29T21:30:05.803Z,12.73
2023-04-29T21:32:33.972Z,12.72
2023-04-29T21:35:02.141Z,12.72
2023-04-29T21:37:31.904Z,12.71
2023-04-29T21:40:00.403Z,12.72
2023-04-29T21:42:28.312Z,12.70
2023-04-29T21:44:58.091Z,12.69
2023-04-29T21:47:25.940Z,12.66
2023-04-29T21:49:55.097Z,12.65
2023-04-29T21:52:23.341Z,12.63
2023-04-29T21:54:52.551Z,12.62
2023-04-29T21:57:26.366Z,12.64
2023-04-29T21:59:59.971Z,12.61
2023-04-29T22:02:37.978Z,12.59
2023-04-29T22:05:06.508Z,12.55
2023-04-29T22:07:34.225Z,12.56
2023-04-29T22:10:03.394Z,12.55
2023-04-29T22:12:31.184Z,12.54
2023-04-29T22:14:58.995Z,12.53
2023-04-29T22:17:26.832Z,12.53
2023-04-29T22:19:54.837Z,12.51
2023-04-29T22:22:22.686Z,12.51
2023-04-29T22:24:50.901Z,12.52
2023-04-29T22:27:20.020Z,12.52
2023-04-29T22:29:47.792Z,12.52
2023-04-29T22:32:15.633Z,12.51
2023-04-29T22:34:43.423Z,12.49
2023-04-29T22:37:11.125Z,12.49
2023-04-29T22:39:38.911Z,12.49
2023-04-29T22:42:07.049Z,12.45
2023-04-29T22:44:36.208Z,12.43
2023-04-29T22:47:04.248Z,12.41
2023-04-29T22:49:31.954Z,12.39
2023-04-29T22:51:59.651Z,12.37
2023-04-29T22:54:27.374Z,12.37
2023-04-29T22:56:55.154Z,12.35
2023-04-29T22:59:22.907Z,12.34
2023-04-29T23:01:52.567Z,12.32
2023-04-29T23:04:20.357Z,12.29
2023-04-29T23:06:48.200Z,12.28
2023-04-29T23:09:16.138Z,12.28
2023-04-29T23:11:43.931Z,12.26
2023-04-29T23:14:11.699Z,12.28
2023-04-29T23:16:39.538Z,12.30
2023-04-29T23:19:08.742Z,12.31
2023-04-29T23:21:36.410Z,12.30
2023-04-29T23:24:04.569Z,12.28
2023-04-29T23:26:32.622Z,12.27
2023-04-29T23:29:00.543Z,12.27
2023-04-29T23:31:28.328Z,12.27
2023-04-29T23:33:56.088Z,12.23
2023-04-29T23:36:25.268Z,12.23
2023-04-29T23:38:52.953Z,12.22
2023-04-29T23:41:20.798Z,12.21
2023-04-29T23:43:48.535Z,12.21
2023-04-29T23:46:16.411Z,12.21
2023-04-29T23:48:44.205Z,12.22
2023-04-29T23:51:11.912Z,12.20
2023-04-29T23:53:41.017Z,12.18
2023-04-29T23:56:09.175Z,12.17
2023-04-29T23:58:37.211Z,12.15
